Wainwright, AK

8:13 AM AKDT on September 16, 2014 (GMT -0800)
Wainwright | Change Station
CLOSE
Current Station
Airport
Location: Wainwright,
Elevation: 39 ft
Nearby Weather Stations

Elev 39 ft 70.64 °N, 159.99 °W | Updated 1 hour ago

Fog
Fog
35 °F
Feels Like 32 °F
N
4
Wind Variable Wind from North

Today
High -- | Low -- °F
--% Chance of Precip.
Yesterday
High -- | Low -- °F
Precip. -- in
7:56 AM 9:10 PM
Last Quarter, 44% visible
Pressure 29.62 in
Visibility 0.2 miles
Clouds
Windchill 32 °F
Dew Point 32 °F
Humidity 89%
Rainfall 0.00 in
Snow Depth 0 in , 4 in , 4 in
UV Not available.
Pollen Not available.
Air Quality Not available.
Flu Activity Not available.
METAR PAWI 161453Z AUTO 36003KT 1/4SM FG VV002 02/00 A2961 RMK AO2 SLP029 T00170000 56007 TSNO

More Conditions Fewer Conditions

Pressure 29.62 in
Visibility 0.2 miles
Clouds
Windchill 32 °F
Dew Point 32 °F
Humidity 89%
Rainfall 0.00 in
Snow Depth 0 in , 4 in , 4 in
UV Not available.
Pollen Not available.
Air Quality Not available.
Flu Activity Not available.
METAR PAWI 161453Z AUTO 36003KT 1/4SM FG VV002 02/00 A2961 RMK AO2 SLP029 T00170000 56007 TSNO

More Conditions Fewer Conditions

10-Day Weather Forecast

Almanac

Astronomy

Sep. 16, 2014 Rise Set
Actual Time 7:56 AM AKDT 9:10 PM AKDT
Civil Twilight 6:50 AM AKDT 10:16 PM AKDT
Nautical Twilight 5:19 AM AKDT 11:45 PM AKDT
Astronomical Twilight 3:07 AM AKDT 2:02 AM AKDT
Moon 10:58 PM AKDT 7:57 PM AKDT
Length of Visible Light 15h 25m
Length of Day
13h 14m
Tomorrow will be 8m 54s shorter.
Last Quarter, 44% of the Moon is Illuminated
Today
Last Quarter
Sep 24
New
Oct 1
First Quarter
Oct 8
Full
Oct 15
Last Quarter

Today's Extremes

State Highs State Lows

Community

WunderPhotos

Upload Photos

1,753,819 photos uploaded!

Nearby

Snow Depth

Station Depth Elevation
Grandview 0 in 1100 ft
Atigun Pass 4 in 4800 ft
Rocky Point 4 in 500 ft
Indian Pass 1 in 2300 ft
Coldfoot 1 in 1040 ft

Earthquake Activity

City Distance Mag. Time & Date
No recent earthquake activity has been reported nearby.
Minimum magnitude displayed is 2.5.

Coastal Water Temperatures

Place Temperature
No Stations Reporting

Nearby Weather Stations